createdAt,value
2023-02-17T00:01:38.421Z,9.64
2023-02-17T00:04:06.966Z,9.49
2023-02-17T00:06:35.409Z,9.64
2023-02-17T00:09:04.472Z,9.56
2023-02-17T00:11:33.619Z,9.46
2023-02-17T00:14:02.179Z,9.55
2023-02-17T00:16:30.894Z,9.62
2023-02-17T00:19:01.908Z,9.57
2023-02-17T00:21:32.670Z,9.62
2023-02-17T00:24:01.256Z,9.54
2023-02-17T00:26:30.580Z,9.53
2023-02-17T00:28:59.489Z,9.52
2023-02-17T00:31:28.085Z,9.50
2023-02-17T00:33:57.258Z,9.36
2023-02-17T00:36:27.328Z,9.26
2023-02-17T00:38:57.806Z,9.46
2023-02-17T00:41:27.965Z,9.34
2023-02-17T00:44:00.236Z,9.33
2023-02-17T00:46:28.823Z,9.40
2023-02-17T00:48:57.302Z,9.45
2023-02-17T00:51:26.843Z,9.59
2023-02-17T00:53:55.282Z,9.71
2023-02-17T00:56:23.700Z,9.61
2023-02-17T00:58:53.107Z,9.57
2023-02-17T01:01:21.756Z,9.62
2023-02-17T01:03:50.242Z,9.73
2023-02-17T01:06:28.531Z,9.66
2023-02-17T01:08:57.745Z,9.81
2023-02-17T01:11:29.059Z,9.86
2023-02-17T01:14:01.988Z,9.88
2023-02-17T01:16:35.457Z,9.90
2023-02-17T01:19:07.293Z,10.05
2023-02-17T01:21:36.467Z,9.97
2023-02-17T01:24:08.613Z,9.95
2023-02-17T01:26:37.635Z,9.96
2023-02-17T01:29:07.407Z,9.83
2023-02-17T01:31:37.351Z,9.78
2023-02-17T01:34:06.300Z,9.74
2023-02-17T01:36:35.342Z,9.84
2023-02-17T01:39:04.275Z,9.94
2023-02-17T01:41:32.869Z,9.92
2023-02-17T01:44:19.826Z,9.77
2023-02-17T01:46:50.749Z,9.71
2023-02-17T01:49:34.511Z,9.95
2023-02-17T01:52:17.345Z,9.83
2023-02-17T01:54:52.716Z,9.75
2023-02-17T01:57:26.973Z,9.78
2023-02-17T01:59:56.530Z,9.78
2023-02-17T02:02:29.595Z,9.92
2023-02-17T02:05:00.466Z,9.88
2023-02-17T02:07:32.693Z,9.80
2023-02-17T02:10:01.356Z,9.86
2023-02-17T02:12:34.459Z,9.90
2023-02-17T02:15:08.628Z,10.07
2023-02-17T02:17:46.150Z,10.30
2023-02-17T02:20:34.084Z,10.21
2023-02-17T02:23:47.776Z,10.16
2023-02-17T02:26:55.245Z,10.23
2023-02-17T02:29:42.303Z,10.13
2023-02-17T02:32:35.686Z,10.13
2023-02-17T02:35:19.459Z,10.17
2023-02-17T02:38:01.286Z,10.09
2023-02-17T02:40:35.068Z,9.98
2023-02-17T02:43:05.448Z,9.94
2023-02-17T02:45:35.751Z,10.04
2023-02-17T02:48:04.295Z,10.06
2023-02-17T02:50:54.644Z,9.87
2023-02-17T02:53:28.652Z,9.87
2023-02-17T02:56:16.286Z,9.88
2023-02-17T02:58:50.916Z,9.95
2023-02-17T03:01:30.538Z,10.10
2023-02-17T03:04:05.015Z,9.96
2023-02-17T03:06:58.539Z,9.95
2023-02-17T03:09:28.909Z,9.86
2023-02-17T03:11:58.560Z,9.77
2023-02-17T03:14:35.806Z,10.13
2023-02-17T03:17:04.862Z,10.04
2023-02-17T03:19:33.267Z,10.10
2023-02-17T03:22:20.538Z,10.16
2023-02-17T03:24:49.703Z,9.97
2023-02-17T03:27:18.354Z,9.87
2023-02-17T03:29:46.961Z,9.82
2023-02-17T03:32:15.421Z,9.80
2023-02-17T03:34:43.962Z,9.86
2023-02-17T03:37:12.501Z,9.90
2023-02-17T03:39:40.990Z,9.98
2023-02-17T03:42:09.520Z,9.87
2023-02-17T03:44:38.089Z,9.85
2023-02-17T03:47:07.605Z,9.90
2023-02-17T03:49:36.041Z,9.81
2023-02-17T03:52:04.864Z,9.74
2023-02-17T03:54:33.420Z,9.72
2023-02-17T03:57:02.223Z,9.82
2023-02-17T03:59:30.955Z,9.68
2023-02-17T04:01:59.431Z,9.81
2023-02-17T04:04:28.049Z,9.57
2023-02-17T04:06:56.505Z,9.74
2023-02-17T04:09:24.891Z,9.44
2023-02-17T04:11:53.343Z,9.46
2023-02-17T04:14:22.323Z,9.51
2023-02-17T04:16:50.732Z,9.45
2023-02-17T04:19:21.156Z,9.43
2023-02-17T04:21:49.945Z,9.28
2023-02-17T04:24:18.441Z,9.40
2023-02-17T04:26:46.842Z,9.34
2023-02-17T04:29:15.375Z,9.43
2023-02-17T04:31:43.948Z,9.47
2023-02-17T04:34:12.544Z,9.44
2023-02-17T04:36:42.895Z,9.56
2023-02-17T04:39:12.905Z,9.48
2023-02-17T04:41:41.435Z,9.50
2023-02-17T04:44:09.882Z,9.50
2023-02-17T04:46:38.598Z,9.47
2023-02-17T04:49:07.077Z,9.37
2023-02-17T04:51:35.514Z,9.42
2023-02-17T04:54:04.070Z,9.31
2023-02-17T04:56:32.580Z,9.26
2023-02-17T04:59:01.247Z,9.37
2023-02-17T05:01:29.883Z,9.36
2023-02-17T05:03:58.454Z,9.48
2023-02-17T05:06:26.882Z,9.52
2023-02-17T05:08:55.317Z,9.58
2023-02-17T05:11:23.846Z,9.41
2023-02-17T05:13:52.249Z,9.45
2023-02-17T05:16:20.724Z,9.49
2023-02-17T05:18:50.021Z,9.58
2023-02-17T05:21:18.473Z,9.49
2023-02-17T05:23:47.069Z,9.59
2023-02-17T05:26:15.557Z,9.57
2023-02-17T05:28:44.158Z,9.57
2023-02-17T05:31:13.475Z,9.61
2023-02-17T05:33:42.233Z,9.73
2023-02-17T05:36:11.641Z,9.66
2023-02-17T05:38:40.968Z,9.64
2023-02-17T05:41:09.561Z,9.75
2023-02-17T05:43:38.099Z,9.77
2023-02-17T05:46:07.036Z,9.75
2023-02-17T05:48:35.801Z,9.73
2023-02-17T05:51:04.669Z,9.64
2023-02-17T05:53:33.259Z,9.65
2023-02-17T05:56:01.872Z,9.52
2023-02-17T05:58:30.918Z,9.72
2023-02-17T06:00:59.297Z,9.71
2023-02-17T06:03:27.921Z,9.89
2023-02-17T06:05:56.469Z,9.78
2023-02-17T06:08:25.066Z,9.88
2023-02-17T06:10:54.414Z,9.81
2023-02-17T06:13:22.918Z,9.86
2023-02-17T06:15:51.399Z,9.84
2023-02-17T06:18:20.094Z,9.80
2023-02-17T06:20:48.613Z,9.69
2023-02-17T06:23:17.512Z,9.71
2023-02-17T06:25:46.588Z,9.64
2023-02-17T06:28:15.159Z,9.81
2023-02-17T06:30:43.716Z,9.73
2023-02-17T06:33:12.311Z,9.70
2023-02-17T06:35:40.790Z,9.58
2023-02-17T06:38:09.308Z,9.70
2023-02-17T06:40:37.938Z,9.77
2023-02-17T06:43:07.176Z,9.62
2023-02-17T06:45:35.721Z,9.68
2023-02-17T06:48:04.441Z,9.61
2023-02-17T06:50:32.963Z,9.65
2023-02-17T06:53:01.384Z,9.87
2023-02-17T06:55:30.049Z,9.76
2023-02-17T06:57:58.408Z,9.83
2023-02-17T07:00:27.375Z,9.70
2023-02-17T07:02:56.054Z,9.80
2023-02-17T07:05:25.188Z,9.84
2023-02-17T07:07:53.971Z,9.81
2023-02-17T07:10:22.448Z,9.98
2023-02-17T07:12:51.484Z,9.80
2023-02-17T07:15:20.003Z,9.69
2023-02-17T07:17:48.546Z,9.61
2023-02-17T07:20:17.412Z,9.72
2023-02-17T07:22:45.975Z,9.85
2023-02-17T07:25:14.684Z,9.87
2023-02-17T07:27:43.221Z,10.01
2023-02-17T07:30:12.264Z,9.93
2023-02-17T07:32:41.508Z,10.02
2023-02-17T07:35:10.350Z,10.08
2023-02-17T07:37:38.984Z,10.25
2023-02-17T07:40:08.319Z,10.02
2023-02-17T07:42:36.768Z,10.19
2023-02-17T07:45:06.174Z,10.32
2023-02-17T07:47:34.738Z,10.25
2023-02-17T07:50:03.429Z,10.23
2023-02-17T07:52:31.902Z,10.13
2023-02-17T07:55:00.512Z,10.05
2023-02-17T07:57:30.302Z,10.49
2023-02-17T07:59:58.865Z,10.49
2023-02-17T08:02:27.557Z,10.69
2023-02-17T08:04:56.453Z,10.49
2023-02-17T08:07:25.079Z,10.37
2023-02-17T08:10:12.824Z,10.54
2023-02-17T08:13:00.166Z,10.57
2023-02-17T08:15:28.786Z,10.51
2023-02-17T08:17:57.698Z,10.41
2023-02-17T08:20:26.244Z,10.42
2023-02-17T08:22:54.715Z,10.49
2023-02-17T08:25:23.223Z,10.30
2023-02-17T08:27:51.697Z,10.44
2023-02-17T08:30:20.301Z,10.42
2023-02-17T08:32:48.864Z,10.52
2023-02-17T08:35:20.594Z,10.63
2023-02-17T08:37:50.399Z,10.77
2023-02-17T08:40:19.746Z,10.64
2023-02-17T08:42:48.660Z,10.59
2023-02-17T08:45:18.341Z,10.92
2023-02-17T08:47:46.810Z,10.81
2023-02-17T08:50:16.754Z,10.86
2023-02-17T08:52:45.250Z,10.91
2023-02-17T08:55:15.450Z,10.72
2023-02-17T08:57:44.768Z,10.63
2023-02-17T09:00:14.187Z,10.74
2023-02-17T09:02:45.245Z,10.60
2023-02-17T09:05:15.241Z,10.65
2023-02-17T09:07:43.871Z,10.78
2023-02-17T09:10:14.822Z,10.90
2023-02-17T09:12:43.488Z,11.07
2023-02-17T09:15:12.001Z,10.99
2023-02-17T09:17:42.081Z,11.12
2023-02-17T09:20:23.983Z,11.14
2023-02-17T09:22:53.556Z,11.20
2023-02-17T09:25:22.503Z,11.29
2023-02-17T09:27:51.452Z,11.25
2023-02-17T09:30:20.020Z,11.43
2023-02-17T09:32:48.766Z,11.22
2023-02-17T09:35:18.633Z,11.20
2023-02-17T09:37:47.987Z,11.01
2023-02-17T09:40:47.492Z,10.98
2023-02-17T09:43:29.188Z,11.27
2023-02-17T09:46:03.003Z,11.24
2023-02-17T09:48:33.202Z,11.36
2023-02-17T09:51:12.554Z,11.73
2023-02-17T09:54:00.189Z,11.57
2023-02-17T09:56:34.779Z,11.70
2023-02-17T09:59:20.053Z,11.57
2023-02-17T10:01:51.145Z,11.62
2023-02-17T10:04:27.615Z,11.43
2023-02-17T10:07:20.412Z,11.52
2023-02-17T10:10:03.563Z,11.60
2023-02-17T10:12:39.949Z,11.67
2023-02-17T10:15:17.927Z,11.57
2023-02-17T10:17:51.294Z,11.71
2023-02-17T10:20:33.588Z,11.72
2023-02-17T10:23:19.097Z,11.72
2023-02-17T10:26:15.857Z,11.61
2023-02-17T10:29:01.049Z,11.68
2023-02-17T10:32:08.492Z,11.92
2023-02-17T10:35:16.790Z,12.00
2023-02-17T10:37:51.451Z,11.93
2023-02-17T10:40:22.831Z,12.04
2023-02-17T10:42:55.532Z,11.83
2023-02-17T10:45:33.991Z,11.77
2023-02-17T10:48:18.818Z,12.01
2023-02-17T10:50:48.820Z,12.05
2023-02-17T10:53:23.170Z,11.98
2023-02-17T10:56:10.738Z,11.99
2023-02-17T10:58:55.686Z,12.06
2023-02-17T11:01:24.592Z,11.93
2023-02-17T11:04:06.015Z,12.11
2023-02-17T11:06:58.185Z,12.24
2023-02-17T11:09:32.363Z,11.92
2023-02-17T11:12:04.533Z,12.07
2023-02-17T11:14:35.500Z,12.33
2023-02-17T11:17:16.797Z,12.01
2023-02-17T11:19:59.262Z,11.97
2023-02-17T11:22:48.819Z,12.20
2023-02-17T11:25:26.435Z,12.20
2023-02-17T11:28:01.836Z,12.37
2023-02-17T11:30:33.137Z,12.25
2023-02-17T11:33:14.323Z,12.26
2023-02-17T11:35:42.767Z,12.17
2023-02-17T11:38:19.808Z,12.05
2023-02-17T11:40:59.369Z,12.15
2023-02-17T11:43:30.166Z,12.15
2023-02-17T11:46:12.434Z,12.39
2023-02-17T11:48:52.736Z,12.30
2023-02-17T11:51:45.993Z,12.27
2023-02-17T11:54:33.137Z,12.22
2023-02-17T11:57:39.935Z,12.15
2023-02-17T12:00:33.327Z,12.12
2023-02-17T12:03:13.939Z,12.19
2023-02-17T12:06:12.501Z,12.29
2023-02-17T12:09:11.471Z,12.34
2023-02-17T12:12:17.226Z,12.18
2023-02-17T12:14:49.658Z,12.32
2023-02-17T12:17:24.815Z,12.27
2023-02-17T12:20:15.274Z,12.46
2023-02-17T12:22:46.599Z,12.46
2023-02-17T12:25:24.437Z,12.30
2023-02-17T12:28:01.572Z,12.42
2023-02-17T12:30:41.961Z,12.33
2023-02-17T12:33:29.010Z,12.15
2023-02-17T12:36:14.258Z,12.23
2023-02-17T12:38:53.430Z,12.29
2023-02-17T12:41:37.457Z,12.64
2023-02-17T12:44:17.491Z,12.61
2023-02-17T12:46:51.818Z,12.65
2023-02-17T12:49:58.946Z,12.78
2023-02-17T12:52:37.772Z,12.68
2023-02-17T12:55:21.020Z,12.80
2023-02-17T12:58:01.254Z,12.83
2023-02-17T13:00:34.143Z,12.55
2023-02-17T13:03:04.483Z,12.48
2023-02-17T13:05:44.661Z,12.61
2023-02-17T13:08:22.152Z,12.63
2023-02-17T13:11:05.123Z,12.64
2023-02-17T13:13:35.839Z,12.68
2023-02-17T13:16:06.614Z,12.58
2023-02-17T13:18:38.448Z,12.69
2023-02-17T13:21:32.315Z,12.89
2023-02-17T13:24:07.978Z,12.79
2023-02-17T13:26:39.215Z,12.65
2023-02-17T13:29:24.948Z,12.79
2023-02-17T13:32:05.402Z,12.59
2023-02-17T13:34:43.811Z,12.69
2023-02-17T13:37:18.849Z,12.73
2023-02-17T13:39:47.431Z,12.95
2023-02-17T13:42:40.759Z,12.73
2023-02-17T13:45:27.389Z,12.59
2023-02-17T13:48:01.060Z,12.59
2023-02-17T13:50:29.986Z,12.52
2023-02-17T13:52:58.818Z,12.67
2023-02-17T13:55:27.385Z,12.61
2023-02-17T13:57:58.738Z,12.60
2023-02-17T14:00:30.203Z,12.58
2023-02-17T14:03:17.703Z,12.65
2023-02-17T14:05:48.402Z,12.86
2023-02-17T14:08:37.076Z,12.76
2023-02-17T14:11:08.344Z,12.56
2023-02-17T14:13:46.095Z,12.71
2023-02-17T14:16:36.228Z,12.72
2023-02-17T14:19:08.150Z,12.66
2023-02-17T14:21:40.172Z,12.84
2023-02-17T14:24:23.684Z,12.80
2023-02-17T14:27:07.215Z,12.82
2023-02-17T14:29:47.358Z,13.06
2023-02-17T14:32:40.589Z,12.96
2023-02-17T14:35:12.047Z,12.99
2023-02-17T14:37:42.064Z,13.00
2023-02-17T14:40:23.980Z,13.02
2023-02-17T14:42:52.681Z,12.97
2023-02-17T14:45:21.161Z,13.09
2023-02-17T14:47:50.820Z,13.29
2023-02-17T14:50:19.389Z,13.36
2023-02-17T14:52:50.062Z,13.35
2023-02-17T14:55:42.553Z,13.04
2023-02-17T14:58:20.022Z,13.17
2023-02-17T15:00:49.754Z,12.99
2023-02-17T15:03:18.817Z,13.02
2023-02-17T15:05:47.912Z,13.17
2023-02-17T15:08:19.616Z,13.22
2023-02-17T15:10:49.591Z,13.24
2023-02-17T15:13:22.414Z,13.18
2023-02-17T15:15:51.066Z,13.08
2023-02-17T15:18:21.308Z,13.32
2023-02-17T15:20:51.923Z,13.21
2023-02-17T15:23:23.129Z,13.43
2023-02-17T15:25:53.945Z,13.65
2023-02-17T15:28:22.602Z,13.61
2023-02-17T15:30:54.839Z,13.59
2023-02-17T15:33:24.387Z,13.70
2023-02-17T15:35:55.089Z,13.52
2023-02-17T15:38:24.702Z,13.53
2023-02-17T15:40:57.109Z,13.61
2023-02-17T15:46:14.692Z,13.53
2023-02-17T15:48:45.001Z,13.54
2023-02-17T15:51:16.141Z,13.51
2023-02-17T15:53:44.595Z,13.54
2023-02-17T15:56:22.549Z,13.49
2023-02-17T15:58:51.157Z,13.77
2023-02-17T16:01:34.002Z,13.82
2023-02-17T16:04:02.776Z,13.60
2023-02-17T16:06:31.623Z,13.67
2023-02-17T16:09:00.142Z,13.65
2023-02-17T16:11:29.353Z,13.54
2023-02-17T16:13:57.868Z,13.62
2023-02-17T16:16:33.055Z,13.49
2023-02-17T16:19:02.537Z,13.64
2023-02-17T16:21:30.983Z,13.58
2023-02-17T16:24:00.674Z,13.57
2023-02-17T16:26:37.447Z,13.58
2023-02-17T16:29:18.675Z,13.45
2023-02-17T16:31:48.112Z,13.47
2023-02-17T16:34:22.999Z,13.58
2023-02-17T16:36:55.127Z,13.63
2023-02-17T16:39:23.774Z,13.57
2023-02-17T16:41:52.633Z,13.54
2023-02-17T16:44:22.968Z,13.58
2023-02-17T16:46:55.484Z,13.66
2023-02-17T16:49:34.119Z,13.55
2023-02-17T16:52:07.501Z,13.60
2023-02-17T16:54:36.127Z,13.73
2023-02-17T16:57:04.699Z,13.80
2023-02-17T16:59:33.206Z,13.83
2023-02-17T17:02:01.989Z,13.79
2023-02-17T17:04:30.516Z,13.80
2023-02-17T17:06:59.139Z,13.84
2023-02-17T17:09:28.266Z,13.91
2023-02-17T17:11:57.715Z,13.86
2023-02-17T17:14:26.207Z,13.90
2023-02-17T17:17:01.862Z,13.94
2023-02-17T17:19:30.357Z,14.04
2023-02-17T17:21:58.815Z,14.16
2023-02-17T17:24:27.480Z,14.25
2023-02-17T17:26:56.277Z,14.35
2023-02-17T17:29:24.789Z,14.37
2023-02-17T17:31:53.568Z,14.35
2023-02-17T17:34:22.264Z,14.40
2023-02-17T17:36:50.709Z,14.55
2023-02-17T17:39:24.292Z,14.70
2023-02-17T17:41:52.920Z,14.82
2023-02-17T17:44:22.155Z,14.88
2023-02-17T17:46:50.714Z,14.90
2023-02-17T17:49:19.200Z,14.85
2023-02-17T17:51:47.651Z,14.73
2023-02-17T17:54:16.517Z,14.70
2023-02-17T17:56:45.287Z,14.76
2023-02-17T17:59:14.538Z,14.85
2023-02-17T18:01:45.530Z,14.82
2023-02-17T18:04:14.600Z,14.83
2023-02-17T18:06:47.742Z,15.01
2023-02-17T18:09:31.274Z,14.94
2023-02-17T18:12:06.011Z,14.81
2023-02-17T18:14:37.979Z,14.87
2023-02-17T18:17:08.049Z,14.98
2023-02-17T18:19:36.738Z,14.94
2023-02-17T18:22:05.465Z,14.91
2023-02-17T18:24:34.426Z,14.95
2023-02-17T18:27:03.308Z,15.08
2023-02-17T18:29:32.034Z,15.09
2023-02-17T18:32:00.766Z,14.95
2023-02-17T18:34:29.346Z,15.11
2023-02-17T18:36:57.883Z,15.20
2023-02-17T18:39:26.683Z,15.13
2023-02-17T18:41:55.201Z,15.11
2023-02-17T18:44:23.645Z,15.14
2023-02-17T18:46:52.320Z,15.09
2023-02-17T18:49:20.719Z,15.06
2023-02-17T18:51:50.547Z,15.25
2023-02-17T18:54:19.485Z,15.13
2023-02-17T18:56:48.156Z,15.21
2023-02-17T18:59:16.673Z,15.20
2023-02-17T19:01:45.266Z,15.31
2023-02-17T19:04:15.466Z,15.33
2023-02-17T19:06:43.926Z,15.30
2023-02-17T19:09:12.589Z,15.40
2023-02-17T19:11:41.434Z,15.34
2023-02-17T19:14:09.856Z,15.44
2023-02-17T19:16:39.240Z,15.60
2023-02-17T19:19:07.703Z,15.48
2023-02-17T19:21:36.494Z,15.49
2023-02-17T19:24:05.373Z,15.45
2023-02-17T19:26:34.343Z,15.28
2023-02-17T19:29:02.922Z,15.35
2023-02-17T19:31:31.667Z,15.46
2023-02-17T19:34:00.273Z,15.62
2023-02-17T19:36:28.722Z,15.59
2023-02-17T19:38:57.813Z,15.52
2023-02-17T19:41:26.305Z,15.51
2023-02-17T19:43:54.751Z,15.67
2023-02-17T19:46:24.878Z,15.63
2023-02-17T19:48:53.383Z,15.59
2023-02-17T19:51:21.982Z,15.76
2023-02-17T19:53:50.518Z,15.80
2023-02-17T19:56:21.865Z,15.95
2023-02-17T19:58:52.034Z,15.89
2023-02-17T20:01:23.902Z,15.84
2023-02-17T20:03:54.881Z,15.73
2023-02-17T20:06:29.079Z,15.07
2023-02-17T20:09:00.458Z,15.07
2023-02-17T20:11:29.618Z,14.72
2023-02-17T20:13:59.953Z,14.82
2023-02-17T20:16:29.880Z,14.87
2023-02-17T20:19:01.349Z,14.91
2023-02-17T20:21:32.609Z,14.96
2023-02-17T20:24:01.865Z,14.88
2023-02-17T20:26:38.285Z,14.87
2023-02-17T20:29:07.154Z,14.79
2023-02-17T20:31:37.232Z,14.69
2023-02-17T20:34:07.772Z,14.66
2023-02-17T20:36:36.272Z,14.52
2023-02-17T20:39:05.202Z,14.46
2023-02-17T20:41:33.771Z,14.54
2023-02-17T20:44:04.389Z,14.56
2023-02-17T20:46:32.999Z,14.32
2023-02-17T20:49:01.439Z,14.45
2023-02-17T20:51:29.999Z,14.31
2023-02-17T20:53:58.399Z,14.29
2023-02-17T20:56:34.514Z,14.33
2023-02-17T20:59:04.344Z,14.27
2023-02-17T21:01:32.982Z,14.11
2023-02-17T21:04:02.445Z,14.12
2023-02-17T21:06:34.753Z,14.32
2023-02-17T21:09:07.348Z,14.18
2023-02-17T21:11:36.216Z,14.37
2023-02-17T21:14:04.667Z,14.15
2023-02-17T21:16:33.287Z,13.95
2023-02-17T21:19:02.500Z,13.82
2023-02-17T21:21:32.221Z,13.95
2023-02-17T21:24:00.758Z,13.77
2023-02-17T21:26:29.244Z,13.59
2023-02-17T21:28:57.720Z,13.57
2023-02-17T21:31:29.306Z,13.62
2023-02-17T21:33:59.147Z,13.56
2023-02-17T21:36:29.349Z,13.42
2023-02-17T21:38:59.391Z,13.42
2023-02-17T21:41:30.021Z,13.38
2023-02-17T21:44:18.639Z,13.21
2023-02-17T21:46:47.162Z,13.14
2023-02-17T21:49:15.678Z,13.15
2023-02-17T21:51:44.430Z,13.12
2023-02-17T21:54:13.060Z,13.03
2023-02-17T21:56:41.530Z,13.13
2023-02-17T21:59:10.106Z,13.02
2023-02-17T22:01:38.704Z,13.00
2023-02-17T22:04:07.191Z,12.94
2023-02-17T22:06:38.928Z,12.78
2023-02-17T22:09:09.614Z,12.79
2023-02-17T22:11:41.022Z,12.84
2023-02-17T22:14:13.958Z,12.65
2023-02-17T22:16:43.014Z,12.72
2023-02-17T22:19:31.457Z,12.68
2023-02-17T22:22:00.145Z,12.52
2023-02-17T22:24:28.650Z,12.44
2023-02-17T22:26:57.464Z,12.34
2023-02-17T22:29:26.042Z,12.50
2023-02-17T22:31:56.303Z,12.50
2023-02-17T22:34:27.763Z,12.41
2023-02-17T22:36:56.442Z,12.41
2023-02-17T22:39:24.982Z,12.38
2023-02-17T22:41:53.713Z,12.16
2023-02-17T22:44:22.675Z,12.25
2023-02-17T22:46:51.123Z,11.98
2023-02-17T22:49:19.625Z,11.96
2023-02-17T22:51:48.761Z,12.00
2023-02-17T22:54:17.253Z,11.99
2023-02-17T22:56:45.894Z,11.92
2023-02-17T22:59:14.342Z,11.93
2023-02-17T23:01:43.028Z,11.95
2023-02-17T23:04:14.296Z,11.89
2023-02-17T23:06:43.862Z,11.85
2023-02-17T23:09:18.146Z,11.89
2023-02-17T23:11:50.253Z,11.87
2023-02-17T23:14:31.419Z,11.82
2023-02-17T23:17:03.382Z,11.85
2023-02-17T23:19:33.490Z,11.80
2023-02-17T23:22:08.629Z,11.87
2023-02-17T23:24:37.466Z,11.84
2023-02-17T23:27:06.278Z,11.72
2023-02-17T23:29:34.966Z,11.64
2023-02-17T23:32:03.506Z,11.51
2023-02-17T23:34:32.265Z,11.57
2023-02-17T23:37:01.062Z,11.62
2023-02-17T23:39:29.663Z,11.40
2023-02-17T23:41:58.182Z,11.49
2023-02-17T23:44:26.620Z,11.31
2023-02-17T23:46:55.115Z,11.30
2023-02-17T23:49:23.528Z,11.47
2023-02-17T23:51:52.820Z,11.32
2023-02-17T23:54:22.924Z,11.25
2023-02-17T23:56:51.355Z,11.38
2023-02-17T23:59:19.827Z,11.36
